Latest Weather Observations for PORTABLE RFSNSW51

IDN60801

Issued at 10:03 pm EST Tuesday 4 August 2020 (issued every 10 minutes, with the page automatically refreshed every 10 minutes)

About weather observations | Map of weather stations | Latest weather observations for NSW | Other Formats
Station Details ID: 250098 Name: PORTABLE RFSNSW51 Lat: -35.49 Lon: 146.97 Height: 228.0 m

Portable automatic weather stations (PAWS) are operated by other organisations, such as Fire and Emergency Services, and are included here by agreement. Portable stations may be deployed to a location for a short period and their location may be subject to change without notice. Wind observations from these stations are provided from heights of either three (3) or ten (10) metres above ground level (AGL).

Data from the previous 72 hours. | See also: Recent months for locations in New South Wales
Date/Time
EST
Temp
°C
App
Temp
°C
Dew
Point
°C
Rel
Hum
%
Delta-T
°C
Wind Press
QNH
hPa
Press
MSL
hPa
Rain since
9am
mm
Dir  Spd
km/h
Gust
km/h
Spd
kts
Gust
kts
04/09:50pm 2.2 -1.0 0.6 89 0.6 NNE 7 7 4 4 - - 0.0
04/09:40pm 1.4 -1.8 1.0 97 0.2 NNE 7 7 4 4 - - 0.0
04/09:30pm 1.4 -1.7 1.3 99 0.0 NNE 7 7 4 4 - - 0.0
04/09:20pm 1.2 -1.9 1.1 99 0.0 NNE 7 7 4 4 - - 0.0
04/09:10pm 1.0 -2.2 0.8 99 0.1 NNE 7 7 4 4 - - 0.0
04/09:00pm 1.0 -2.2 0.8 99 0.1 NNE 7 7 4 4 - - 0.0
04/08:50pm 1.1 -2.1 0.8 98 0.1 NNE 7 7 4 4 - - 0.0
04/08:40pm 1.4 -1.8 0.8 96 0.2 NNE 7 7 4 4 - - 0.0
04/08:30pm 1.8 -1.4 0.7 92 0.4 NNE 7 7 4 4 - - 0.0
04/08:20pm 2.1 -1.1 0.8 91 0.5 NNE 7 7 4 4 - - 0.0
04/08:10pm 2.2 -1.0 0.9 91 0.5 NNE 7 7 4 4 - - 0.0
04/08:00pm 2.4 -0.7 1.3 92 0.4 NNE 7 7 4 4 - - 0.0
04/07:50pm 2.6 -0.5 1.3 91 0.5 NNE 7 7 4 4 - - 0.0
04/07:40pm 3.1 0.0 1.3 88 0.7 NNE 7 7 4 4 - - 0.0
04/07:30pm 4.1 1.0 1.2 81 1.1 NNE 7 7 4 4 - - 0.0
04/07:20pm 4.5 1.3 0.5 75 1.6 NNE 7 7 4 4 - - 0.0
04/07:10pm 4.6 1.3 0.4 74 1.6 NNE 7 7 4 4 - - 0.0
04/07:00pm 4.3 1.1 0.5 76 1.5 NNE 7 7 4 4 - - 0.0
04/06:50pm 4.4 1.2 1.0 78 1.3 NNE 7 7 4 4 - - 0.0
04/06:40pm 4.5 1.3 0.8 77 1.4 NNE 7 7 4 4 - - 0.0
04/06:30pm 4.6 1.4 0.8 76 1.5 NNE 7 7 4 4 - - 0.0
04/06:20pm 4.7 1.6 1.2 78 1.4 NNE 7 7 4 4 - - 0.0
04/06:10pm 4.7 1.6 1.4 79 1.3 NNE 7 7 4 4 - - 0.0
04/06:00pm 5.2 2.1 1.6 77 1.4 NNE 7 7 4 4 - - 0.0
04/05:50pm 6.1 3.0 1.3 71 1.9 NNE 7 7 4 4 - - 0.0
04/05:40pm 6.8 3.6 0.8 65 2.4 NNE 7 7 4 4 - - 0.0
04/05:30pm 7.3 4.2 1.3 65 2.5 NNE 7 7 4 4 - - 0.0
04/05:20pm 7.8 4.6 0.9 61 2.8 NNE 7 7 4 4 - - 0.0
04/05:10pm 8.2 5.1 1.5 62 2.8 NNE 7 7 4 4 - - 0.0
04/05:00pm 8.5 5.3 0.6 57 3.2 NNE 7 7 4 4 - - 0.0
04/04:50pm 8.7 5.5 0.7 57 3.3 NNE 7 7 4 4 - - 0.0
04/04:40pm 8.8 5.6 0.5 56 3.4 NNE 7 7 4 4 - - 0.0
04/04:30pm 8.9 5.7 1.0 57 3.3 NNE 7 7 4 4 - - 0.0
04/04:20pm 8.7 5.5 0.6 57 3.3 NNE 7 7 4 4 - - 0.0
04/04:10pm 9.0 5.7 0.4 55 3.5 NNE 7 7 4 4 - - 0.0
04/04:00pm 9.0 5.9 1.1 57 3.3 NNE 7 7 4 4 - - 0.0
04/03:50pm 9.3 6.2 1.3 57 3.3 NNE 7 7 4 4 - - 0.0
04/03:40pm 9.7 6.5 0.9 54 3.6 NNE 7 7 4 4 - - 0.0
04/03:30pm 9.3 6.0 0.0 52 3.8 NNE 7 7 4 4 - - 0.0
04/03:20pm 9.4 6.1 0.3 53 3.7 NNE 7 7 4 4 - - 0.0
04/03:10pm 9.8 6.5 -0.2 50 4.0 NNE 7 7 4 4 - - 0.0
04/03:00pm 9.4 6.0 -0.3 51 3.9 NNE 7 7 4 4 - - 0.0
04/02:50pm 9.9 6.6 0.3 51 3.9 NNE 7 7 4 4 - - 0.0
04/02:40pm 9.6 6.2 -0.4 49 4.0 NNE 7 7 4 4 - - 0.0
04/02:30pm 9.7 6.3 -0.3 49 4.0 NNE 7 7 4 4 - - 0.0
04/02:20pm 9.7 6.4 0.0 51 3.9 NNE 7 7 4 4 - - 0.0
04/02:10pm 9.5 6.0 -1.1 47 4.2 NNE 7 7 4 4 - - 0.0
04/02:00pm 9.6 6.3 -0.2 50 4.0 NNE 7 7 4 4 - - 0.0
04/01:50pm 9.5 5.9 -1.8 45 4.4 NNE 7 7 4 4 - - 0.0
04/01:40pm 9.7 6.2 -1.3 46 4.3 NNE 7 7 4 4 - - 0.0
04/01:30pm 9.7 6.3 -0.8 48 4.2 NNE 7 7 4 4 - - 0.0
04/01:20pm 9.6 6.1 -1.7 45 4.4 NNE 7 7 4 4 - - 0.0
04/01:10pm 9.8 6.3 -1.2 46 4.3 NNE 7 7 4 4 - - 0.0
04/01:00pm 9.9 6.4 -1.5 45 4.5 NNE 7 7 4 4 - - 0.0
04/12:50pm 9.6 5.9 -2.8 41 4.7 NNE 7 7 4 4 - - 0.0
04/12:40pm 9.6 6.1 -1.4 46 4.3 NNE 7 7 4 4 - - 0.0
04/12:30pm 9.6 6.4 0.9 54 3.6 NNE 7 7 4 4 - - 0.0
04/12:20pm 9.7 6.4 0.4 52 3.8 NNE 7 7 4 4 - - 0.0
04/12:10pm 9.7 6.4 0.0 51 3.9 NNE 7 7 4 4 - - 0.0
04/12:00pm 8.9 5.8 1.6 60 3.1 NNE 7 7 4 4 - - 0.0
04/11:50am 9.3 6.3 2.2 61 3.0 NNE 7 7 4 4 - - 0.0
04/11:40am 9.5 6.9 4.3 70 2.3 NNE 7 7 4 4 - - 0.0
04/11:30am 9.2 6.5 3.7 68 2.4 NNE 7 7 4 4 - - 0.0
04/11:20am 8.8 6.1 3.5 69 2.3 NNE 7 7 4 4 - - 0.0
04/11:10am 8.8 6.0 3.3 68 2.4 NNE 7 7 4 4 - - 0.0
04/11:00am 8.7 6.1 4.1 73 2.0 NNE 7 7 4 4 - - 0.0
04/10:50am 8.9 6.3 4.2 72 2.1 NNE 7 7 4 4 - - 0.0
04/10:40am 8.7 6.2 4.8 76 1.8 NNE 7 7 4 4 - - 0.0
04/10:30am 9.5 7.0 4.8 72 2.1 NNE 7 7 4 4 - - 0.0
04/10:20am 8.9 6.4 4.7 75 1.9 NNE 7 7 4 4 - - 0.0
04/10:10am 8.6 6.0 4.3 74 1.9 NNE 7 7 4 4 - - 0.0
04/10:00am 8.3 5.7 4.1 75 1.9 NNE 7 7 4 4 - - 0.0
04/09:50am 8.3 5.7 4.3 76 1.8 NNE 7 7 4 4 - - 0.0
04/09:40am 8.2 5.6 4.2 76 1.8 NNE 7 7 4 4 - - 0.0
04/09:30am 8.0 5.4 4.0 76 1.8 NNE 7 7 4 4 - - 0.0
04/09:20am 7.9 5.3 4.1 77 1.7 NNE 7 7 4 4 - - 0.0
04/09:10am 8.0 5.3 3.8 75 1.8 NNE 7 7 4 4 - - 0.0
04/09:00am 7.9 5.3 4.1 77 1.7 NNE 7 7 4 4 - - 0.0
04/08:50am 7.5 4.9 4.3 80 1.4 NNE 7 7 4 4 - - 0.0
04/08:40am 7.3 4.7 4.0 79 1.4 NNE 7 7 4 4 - - 0.0
04/08:30am 6.7 4.1 4.2 84 1.1 NNE 7 7 4 4 - - 0.0
04/08:20am 6.7 4.1 4.4 85 1.0 NNE 7 7 4 4 - - 0.0
04/08:00am 6.8 4.3 4.9 88 0.8 NNE 7 7 4 4 - - 0.0
04/07:50am 6.9 4.5 5.1 88 0.8 NNE 7 7 4 4 - - 0.0
04/07:40am 7.1 4.8 5.8 91 0.6 NNE 7 7 4 4 - - 0.0
04/07:30am 7.1 5.0 6.7 97 0.2 NNE 7 7 4 4 - - 0.0
04/07:20am 7.2 5.2 7.1 99 0.0 NNE 7 7 4 4 - - 0.0
04/07:10am 7.2 5.2 7.2 100 0.0 NNE 7 7 4 4 - - 0.0
04/07:00am 7.3 5.3 7.2 99 0.0 NNE 7 7 4 4 - - 0.0
04/06:50am 7.4 5.4 7.2 99 0.1 NNE 7 7 4 4 - - 0.0
04/06:40am 7.4 5.4 7.3 99 0.0 NNE 7 7 4 4 - - 0.0
04/06:30am 7.6 5.7 7.4 99 0.1 NNE 7 7 4 4 - - 0.0
04/06:20am 7.6 5.7 7.6 100 0.0 NNE 7 7 4 4 - - 0.0
04/06:10am 7.4 5.5 7.4 100 0.0 NNE 7 7 4 4 - - 0.0
04/06:00am 6.9 4.9 6.9 100 0.0 NNE 7 7 4 4 - - 0.0
04/05:50am 6.8 4.7 6.8 100 0.0 NNE 7 7 4 4 - - 0.0
04/05:40am 6.7 4.6 6.7 100 0.0 NNE 7 7 4 4 - - 0.0
04/05:30am 6.6 4.5 6.6 100 0.0 NNE 7 7 4 4 - - 0.0
04/05:20am 6.5 4.4 6.5 100 0.0 NNE 7 7 4 4 - - 0.0
04/05:10am 6.5 4.4 6.5 100 0.0 NNE 7 7 4 4 - - 0.0
04/05:00am 6.4 4.2 6.4 100 0.0 NNE 7 7 4 4 - - 0.0
04/04:50am 6.2 4.0 6.2 100 0.0 NNE 7 7 4 4 - - 0.0
04/04:40am 6.1 3.9 6.1 100 0.0 NNE 7 7 4 4 - - 0.0
04/04:30am 6.2 4.0 6.2 100 0.0 NNE 7 7 4 4 - - 0.0
04/04:20am 6.3 4.1 6.3 100 0.0 NNE 7 7 4 4 - - 0.0
04/04:10am 6.7 4.6 6.7 100 0.0 NNE 7 7 4 4 - - 0.0
04/04:00am 7.0 5.0 6.9 99 0.0 NNE 7 7 4 4 - - 0.0
04/03:50am 6.8 4.7 6.8 100 0.0 NNE 7 7 4 4 - - 0.0
04/03:40am 6.8 4.7 6.8 100 0.0 NNE 7 7 4 4 - - 0.0
04/03:30am 7.0 5.0 7.0 100 0.0 NNE 7 7 4 4 - - 0.0
04/03:20am 7.1 5.1 7.1 100 0.0 NNE 7 7 4 4 - - 0.0
04/03:10am 7.4 5.5 7.4 100 0.0 NNE 7 7 4 4 - - 0.0
04/03:00am 8.0 6.1 7.7 98 0.1 NNE 7 7 4 4 - - 0.0
04/02:50am 8.0 6.2 7.9 99 0.0 NNE 7 7 4 4 - - 0.0
04/02:40am 8.3 6.5 7.8 97 0.2 NNE 7 7 4 4 - - 0.0
04/02:30am 8.4 6.6 7.8 96 0.3 NNE 7 7 4 4 - - 0.0
04/02:20am 8.3 6.5 8.0 98 0.1 NNE 7 7 4 4 - - 0.0
04/02:10am 8.3 6.6 8.2 99 0.0 NNE 7 7 4 4 - - 0.0
04/02:00am 8.6 6.9 8.4 99 0.1 NNE 7 7 4 4 - - 0.0
04/01:50am 8.7 7.0 8.5 99 0.1 NNE 7 7 4 4 - - 0.0
04/01:40am 8.9 7.3 8.6 98 0.1 NNE 7 7 4 4 - - 0.0
04/01:30am 9.0 7.4 8.7 98 0.1 NNE 7 7 4 4 - - 0.0
04/01:20am 9.2 7.6 8.9 98 0.1 NNE 7 7 4 4 - - 0.0
04/01:10am 9.5 8.0 9.0 97 0.2 NNE 7 7 4 4 - - 0.0
04/01:00am 9.7 8.2 9.0 95 0.3 NNE 7 7 4 4 - - 0.0
04/12:50am 9.8 8.3 9.1 95 0.3 NNE 7 7 4 4 - - 0.0
04/12:40am 10.2 8.7 9.0 92 0.6 NNE 7 7 4 4 - - 0.0
04/12:30am 10.2 8.6 8.9 92 0.6 NNE 7 7 4 4 - - 0.0
04/12:20am 10.3 8.8 9.0 92 0.7 NNE 7 7 4 4 - - 0.0
04/12:10am 10.4 8.8 8.9 90 0.7 NNE 7 7 4 4 - - 0.0
04/12:00am 10.5 9.0 9.0 90 0.8 NNE 7 7 4 4 - - 0.0
 
Date/Time
EST
Temp
°C
App
Temp
°C
Dew
Point
°C
Rel
Hum
%
Delta-T
°C
Wind Press
QNH
hPa
Press
MSL
hPa
Rain since
9am
mm
Dir  Spd
km/h
Gust
km/h
Spd
kts
Gust
kts
03/11:50pm 10.5 8.9 8.9 90 0.8 NNE 7 7 4 4 - - 0.0
03/11:40pm 10.6 9.0 8.9 89 0.9 NNE 7 7 4 4 - - 0.0
03/11:30pm 10.5 8.9 8.9 90 0.8 NNE 7 7 4 4 - - 0.0
03/11:20pm 10.5 8.9 8.8 89 0.8 NNE 7 7 4 4 - - 0.0
03/11:10pm 10.6 9.0 8.7 88 0.9 NNE 7 7 4 4 - - 0.0
03/11:00pm 10.6 9.0 8.8 89 0.9 NNE 7 7 4 4 - - 0.0
03/10:50pm 10.6 9.0 8.8 89 0.9 NNE 7 7 4 4 - - 0.0
03/10:40pm 10.7 9.1 8.9 89 0.9 NNE 7 7 4 4 - - 0.0
03/10:30pm 10.8 9.3 9.0 89 0.9 NNE 7 7 4 4 - - 0.0
03/10:20pm 10.9 9.4 9.1 89 0.9 NNE 7 7 4 4 - - 0.0
03/10:10pm 10.8 9.3 9.0 89 0.9 NNE 7 7 4 4 - - 0.0
03/10:00pm 10.6 9.2 9.5 93 0.6 NNE 7 7 4 4 - - 0.0
03/09:50pm 10.7 9.3 9.7 93 0.5 NNE 7 7 4 4 - - 0.0
03/09:40pm 10.7 9.4 9.8 94 0.5 NNE 7 7 4 4 - - 0.0
03/09:30pm 10.9 9.6 10.0 94 0.5 NNE 7 7 4 4 - - 0.0
03/09:20pm 10.9 9.6 10.0 94 0.5 NNE 7 7 4 4 - - 0.0
03/09:10pm 11.0 9.8 10.2 95 0.4 NNE 7 7 4 4 - - 0.0
03/09:00pm 11.0 9.7 10.0 93 0.5 NNE 7 7 4 4 - - 0.0
03/08:50pm 11.0 9.7 10.1 94 0.5 NNE 7 7 4 4 - - 0.0
03/08:40pm 10.9 9.6 9.8 93 0.6 NNE 7 7 4 4 - - 0.0
03/08:30pm 10.6 9.2 9.5 93 0.6 NNE 7 7 4 4 - - 0.0
03/08:20pm 10.5 9.0 9.1 91 0.7 NNE 7 7 4 4 - - 0.0
03/08:10pm 9.8 8.2 8.7 93 0.5 NNE 7 7 4 4 - - 0.0
03/08:00pm 9.7 8.0 8.2 90 0.7 NNE 7 7 4 4 - - 0.0
03/07:50pm 9.8 8.1 8.2 90 0.8 NNE 7 7 4 4 - - 0.0
03/07:40pm 10.0 8.4 8.7 92 0.6 NNE 7 7 4 4 - - 0.0
03/07:30pm 10.3 8.8 9.0 92 0.7 NNE 7 7 4 4 - - 0.0
03/07:20pm 10.5 9.0 9.1 91 0.7 NNE 7 7 4 4 - - 0.0
03/07:00pm 10.3 8.8 9.2 93 0.6 NNE 7 7 4 4 - - 0.0
03/06:50pm 10.6 9.1 9.2 91 0.7 NNE 7 7 4 4 - - 0.0
03/06:40pm 11.0 9.6 9.5 90 0.8 NNE 7 7 4 4 - - 0.0
03/06:30pm 11.6 10.2 9.5 87 1.1 NNE 7 7 4 4 - - 0.0
03/06:20pm 11.8 10.4 9.4 85 1.2 NNE 7 7 4 4 - - 0.0
03/06:10pm 11.4 10.0 9.4 87 1.0 NNE 7 7 4 4 - - 0.0
03/06:00pm 10.9 9.5 9.4 90 0.8 NNE 7 7 4 4 - - 0.0
03/05:50pm 11.4 10.0 9.7 89 0.9 NNE 7 7 4 4 - - 0.0
03/05:40pm 12.0 10.7 9.8 86 1.1 NNE 7 7 4 4 - - 0.0
03/05:30pm 12.6 11.3 10.0 84 1.3 NNE 7 7 4 4 - - 0.0
03/05:20pm 13.3 11.9 9.6 78 1.9 NNE 7 7 4 4 - - 0.0
03/05:10pm 13.5 12.1 9.5 77 2.1 NNE 7 7 4 4 - - 0.0
03/05:00pm 13.7 12.3 9.5 76 2.2 NNE 7 7 4 4 - - 0.0
03/04:50pm 14.1 12.7 9.6 74 2.3 NNE 7 7 4 4 - - 0.0
03/04:40pm 14.7 13.4 9.8 72 2.6 NNE 7 7 4 4 - - 0.0
03/04:30pm 15.1 13.7 9.6 69 2.9 NNE 7 7 4 4 - - 0.0
03/04:20pm 15.3 14.0 10.1 71 2.8 NNE 7 7 4 4 - - 0.0
03/04:10pm 15.2 13.9 10.0 71 2.7 NNE 7 7 4 4 - - 0.0
03/04:00pm 15.5 14.1 9.5 67 3.1 NNE 7 7 4 4 - - 0.0
03/03:50pm 15.5 14.1 9.6 68 3.1 NNE 7 7 4 4 - - 0.0
03/03:40pm 15.4 13.9 9.2 66 3.2 NNE 7 7 4 4 - - 0.0
03/03:30pm 15.4 13.8 8.9 65 3.4 NNE 7 7 4 4 - - 0.0
03/03:20pm 15.7 14.3 9.4 66 3.3 NNE 7 7 4 4 - - 0.0
03/03:10pm 15.7 14.3 9.4 66 3.3 NNE 7 7 4 4 - - 0.0
03/03:00pm 15.7 14.1 8.8 63 3.6 NNE 7 7 4 4 - - 0.0
03/02:50pm 15.9 14.5 9.4 65 3.4 NNE 7 7 4 4 - - 0.0
03/02:40pm 15.9 14.5 9.6 66 3.3 NNE 7 7 4 4 - - 0.0
03/02:30pm 15.8 14.4 9.6 66 3.3 NNE 7 7 4 4 - - 0.0
03/02:20pm 15.6 14.1 9.3 66 3.3 NNE 7 7 4 4 - - 0.0
03/02:10pm 15.6 14.1 9.3 66 3.3 NNE 7 7 4 4 - - 0.0
03/02:00pm 15.9 14.4 9.2 64 3.5 NNE 7 7 4 4 - - 0.0
03/01:50pm 15.9 14.6 9.9 67 3.2 NNE 7 7 4 4 - - 0.0
03/01:40pm 15.8 14.7 10.5 71 2.8 NNE 7 7 4 4 - - 0.0
03/01:30pm 15.5 14.3 10.2 70 2.8 NNE 7 7 4 4 - - 0.0
03/01:20pm 15.2 13.9 9.8 70 2.8 NNE 7 7 4 4 - - 0.0
03/01:10pm 14.9 13.4 9.1 68 3.0 NNE 7 7 4 4 - - 0.0
03/01:00pm 15.0 13.5 9.3 68 3.0 NNE 7 7 4 4 - - 0.0
03/12:50pm 14.8 13.3 9.0 68 3.0 NNE 7 7 4 4 - - 0.0
03/12:40pm 14.8 13.4 9.6 71 2.7 NNE 7 7 4 4 - - 0.0
03/12:30pm 14.9 13.3 8.8 67 3.1 NNE 7 7 4 4 - - 0.0
03/12:20pm 15.0 13.4 8.8 66 3.2 NNE 7 7 4 4 - - 0.0
03/12:10pm 14.5 12.9 8.7 68 3.0 NNE 7 7 4 4 - - 0.0
03/12:00pm 14.0 12.5 9.3 73 2.4 NNE 7 7 4 4 - - 0.0
03/11:50am 13.5 11.8 8.2 70 2.7 NNE 7 7 4 4 - - 0.0
03/11:40am 13.9 12.4 9.0 72 2.5 NNE 7 7 4 4 - - 0.0
03/11:30am 14.0 12.6 9.5 74 2.3 NNE 7 7 4 4 - - 0.0
03/11:20am 13.8 12.2 8.8 72 2.6 NNE 7 7 4 4 - - 0.0
03/11:10am 13.9 12.2 8.3 69 2.8 NNE 7 7 4 4 - - 0.0
03/11:00am 13.7 12.0 8.2 69 2.8 NNE 7 7 4 4 - - 0.0
03/10:50am 13.6 12.0 8.9 73 2.4 NNE 7 7 4 4 - - 0.0
03/10:40am 12.8 11.4 9.5 80 1.7 NNE 7 7 4 4 - - 0.0
03/10:30am 12.3 10.8 9.3 82 1.5 NNE 7 7 4 4 - - 0.0
03/10:20am 12.0 10.5 9.1 82 1.5 NNE 7 7 4 4 - - 0.0
03/10:10am 11.7 10.2 9.3 85 1.2 NNE 7 7 4 4 - - 0.0
03/10:00am 11.3 9.8 9.1 86 1.1 NNE 7 7 4 4 - - 0.0
03/09:50am 11.1 9.5 8.6 84 1.2 NNE 7 7 4 4 - - 0.0
03/09:40am 11.1 9.5 8.7 85 1.2 NNE 7 7 4 4 - - 0.0
03/09:30am 11.1 9.5 8.9 86 1.1 NNE 7 7 4 4 - - 0.0
03/09:20am 10.6 9.0 8.7 88 0.9 NNE 7 7 4 4 - - 0.0
03/09:10am 10.3 8.7 8.6 89 0.8 NNE 7 7 4 4 - - 0.0
03/09:00am 9.9 8.3 8.8 93 0.5 NNE 7 7 4 4 - - 0.0
03/08:50am 9.2 7.6 8.7 97 0.2 NNE 7 7 4 4 - - 0.0
03/08:40am 8.4 6.7 8.3 99 0.0 NNE 7 7 4 4 - - 0.0
03/08:30am 7.3 5.3 7.3 100 0.0 NNE 7 7 4 4 - - 0.0
03/08:20am 6.6 4.5 6.6 100 0.0 NNE 7 7 4 4 - - 0.0
03/08:10am 5.5 3.2 5.5 100 0.0 NNE 7 7 4 4 - - 0.0
03/08:00am 4.2 1.6 4.2 100 0.0 NNE 7 7 4 4 - - 0.0
03/07:50am 3.3 0.5 3.3 100 0.0 NNE 7 7 4 4 - - 0.0
03/07:40am 3.0 0.2 3.0 100 0.0 NNE 7 7 4 4 - - 0.0
03/07:30am 2.8 -0.1 2.8 100 0.0 NNE 7 7 4 4 - - 0.0
03/07:20am 3.8 1.1 3.8 100 0.0 NNE 7 7 4 4 - - 0.0
03/07:10am 3.7 1.0 3.7 100 0.0 NNE 7 7 4 4 - - 0.0
03/07:00am 3.2 0.4 3.2 100 0.0 NNE 7 7 4 4 - - 0.0
03/06:50am 2.8 -0.1 2.8 100 0.0 NNE 7 7 4 4 - - 0.0
03/06:40am 3.1 0.3 3.1 100 0.0 NNE 7 7 4 4 - - 0.0
03/06:30am 3.5 0.8 3.5 100 0.0 NNE 7 7 4 4 - - 0.0
03/06:20am 2.7 -0.2 2.7 100 0.0 NNE 7 7 4 4 - - 0.0
03/06:10am 2.6 -0.3 2.6 100 0.0 NNE 7 7 4 4 - - 0.0
03/06:00am 2.7 -0.2 2.7 100 0.0 NNE 7 7 4 4 - - 0.0
03/05:50am 2.7 -0.2 2.7 100 0.0 NNE 7 7 4 4 - - 0.0
03/05:40am 2.4 -0.5 2.4 100 0.0 NNE 7 7 4 4 - - 0.0
03/05:30am 2.2 -0.8 2.2 100 0.0 NNE 7 7 4 4 - - 0.0
03/05:20am 2.1 -0.9 2.1 100 0.0 NNE 7 7 4 4 - - 0.0
03/05:10am 1.9 -1.1 1.9 100 0.0 NNE 7 7 4 4 - - 0.0
03/05:00am 2.3 -0.7 2.3 100 0.0 NNE 7 7 4 4 - - 0.0
03/04:50am 2.9 0.1 2.9 100 0.0 NNE 7 7 4 4 - - 0.0
03/04:40am 3.5 0.8 3.5 100 0.0 NNE 7 7 4 4 - - 0.0
03/04:30am 2.6 -0.3 2.6 100 0.0 NNE 7 7 4 4 - - 0.0
03/04:20am 1.9 -1.1 1.9 100 0.0 NNE 7 7 4 4 - - 0.0
03/04:10am 1.9 -1.1 1.9 100 0.0 NNE 7 7 4 4 - - 0.0
03/04:00am 2.5 -0.4 2.5 100 0.0 NNE 7 7 4 4 - - 0.0
03/03:50am 2.7 -0.2 2.7 100 0.0 NNE 7 7 4 4 - - 0.0
03/03:40am 2.6 -0.3 2.5 99 0.0 NNE 7 7 4 4 - - 0.0
03/03:30am 3.1 0.3 3.1 100 0.0 NNE 7 7 4 4 - - 0.0
03/03:20am 2.4 -0.5 2.4 100 0.0 NNE 7 7 4 4 - - 0.0
03/03:10am 2.0 -1.0 2.0 100 0.0 NNE 7 7 4 4 - - 0.0
03/03:00am 2.3 -0.7 2.3 100 0.0 NNE 7 7 4 4 - - 0.0
03/02:50am 2.6 -0.3 2.6 100 0.0 NNE 7 7 4 4 - - 0.0
03/02:40am 3.3 0.5 3.3 100 0.0 NNE 7 7 4 4 - - 0.0
03/02:30am 4.6 2.1 4.6 100 0.0 NNE 7 7 4 4 - - 0.0
03/02:20am 4.3 1.7 4.3 100 0.0 NNE 7 7 4 4 - - 0.0
03/02:10am 4.2 1.6 4.1 99 0.0 NNE 7 7 4 4 - - 0.0
03/02:00am 3.9 1.2 3.9 100 0.0 NNE 7 7 4 4 - - 0.0
03/01:50am 3.1 0.3 3.1 100 0.0 NNE 7 7 4 4 - - 0.0
03/01:40am 3.3 0.5 3.3 100 0.0 NNE 7 7 4 4 - - 0.0
03/01:30am 3.3 0.5 3.3 100 0.0 NNE 7 7 4 4 - - 0.0
03/01:20am 3.1 0.3 3.0 99 0.0 NNE 7 7 4 4 - - 0.0
03/01:10am 3.1 0.3 3.0 99 0.0 NNE 7 7 4 4 - - 0.0
03/01:00am 3.7 1.0 3.7 100 0.0 NNE 7 7 4 4 - - 0.0
03/12:50am 3.9 1.2 3.9 100 0.0 NNE 7 7 4 4 - - 0.0
03/12:40am 4.1 1.5 4.1 100 0.0 NNE 7 7 4 4 - - 0.0
03/12:30am 4.5 1.9 4.4 99 0.0 NNE 7 7 4 4 - - 0.0
03/12:20am 4.3 1.7 4.3 100 0.0 NNE 7 7 4 4 - - 0.0
03/12:10am 4.5 2.0 4.5 100 0.0 NNE 7 7 4 4 - - 0.0
03/12:00am 4.0 1.4 4.0 100 0.0 NNE 7 7 4 4 - - 0.0
 
Date/Time
EST
Temp
°C
App
Temp
°C
Dew
Point
°C
Rel
Hum
%
Delta-T
°C
Wind Press
QNH
hPa
Press
MSL
hPa
Rain since
9am
mm
Dir  Spd
km/h
Gust
km/h
Spd
kts
Gust
kts
02/11:50pm 3.7 1.0 3.7 100 0.0 NNE 7 7 4 4 - - 0.0
02/11:40pm 3.8 1.1 3.8 100 0.0 NNE 7 7 4 4 - - 0.0
02/11:30pm 3.7 1.0 3.7 100 0.0 NNE 7 7 4 4 - - 0.0
02/11:20pm 4.0 1.4 4.0 100 0.0 NNE 7 7 4 4 - - 0.0
02/11:10pm 3.7 1.0 3.7 100 0.0 NNE 7 7 4 4 - - 0.0
02/11:00pm 4.5 2.0 4.5 100 0.0 NNE 7 7 4 4 - - 0.0
02/10:50pm 5.1 2.7 5.1 100 0.0 NNE 7 7 4 4 - - 0.0
02/10:40pm 5.4 3.0 5.4 100 0.0 NNE 7 7 4 4 - - 0.0
02/10:30pm 4.3 1.7 4.3 100 0.0 NNE 7 7 4 4 - - 0.0
02/10:20pm 4.5 2.0 4.5 100 0.0 NNE 7 7 4 4 - - 0.0
02/10:10pm 4.5 2.0 4.5 100 0.0 NNE 7 7 4 4 - - 0.0
02/10:00pm 4.6 2.1 4.6 100 0.0 NNE 7 7 4 4 - - 0.0
02/09:50pm 4.6 2.1 4.6 100 0.0 NNE 7 7 4 4 - - 0.0
02/09:40pm 4.7 2.2 4.7 100 0.0 NNE 7 7 4 4 - - 0.0
02/09:30pm 5.0 2.5 4.9 99 0.0 NNE 7 7 4 4 - - 0.0
02/09:20pm 5.2 2.8 5.1 99 0.0 NNE 7 7 4 4 - - 0.0
02/09:10pm 5.4 3.0 5.4 100 0.0 NNE 7 7 4 4 - - 0.0
02/09:00pm 5.5 3.2 5.5 100 0.0 NNE 7 7 4 4 - - 0.0
02/08:50pm 5.6 3.3 5.6 100 0.0 NNE 7 7 4 4 - - 0.0
02/08:40pm 5.7 3.4 5.7 100 0.0 NNE 7 7 4 4 - - 0.0
02/08:30pm 5.6 3.3 5.5 99 0.0 NNE 7 7 4 4 - - 0.0
02/08:20pm 6.0 3.7 5.7 98 0.1 NNE 7 7 4 4 - - 0.0
02/08:10pm 6.2 3.9 5.8 97 0.2 NNE 7 7 4 4 - - 0.0
02/08:00pm 6.5 4.3 6.2 98 0.1 NNE 7 7 4 4 - - 0.0
02/07:50pm 6.6 4.4 6.1 97 0.2 NNE 7 7 4 4 - - 0.0
02/07:40pm 7.2 5.1 6.5 95 0.3 NNE 7 7 4 4 - - 0.0
02/07:30pm 6.7 4.6 6.7 100 0.0 NNE 7 7 4 4 - - 0.0
02/07:20pm 6.9 4.8 6.7 99 0.1 NNE 7 7 4 4 - - 0.0
02/07:10pm 7.2 5.1 6.8 97 0.2 NNE 7 7 4 4 - - 0.0
02/07:00pm 7.2 5.1 6.7 97 0.2 NNE 7 7 4 4 - - 0.0
02/06:50pm 7.6 5.6 7.0 96 0.3 NNE 7 7 4 4 - - 0.0
02/06:40pm 7.3 5.3 7.0 98 0.1 NNE 7 7 4 4 - - 0.0
02/06:30pm 7.9 5.9 7.1 95 0.4 NNE 7 7 4 4 - - 0.0
02/06:20pm 8.4 6.4 7.0 91 0.7 NNE 7 7 4 4 - - 0.0
02/06:10pm 8.9 6.9 7.0 88 0.9 NNE 7 7 4 4 - - 0.0
02/06:00pm 9.5 7.6 7.7 88 0.9 NNE 7 7 4 4 - - 0.0
02/05:50pm 10.7 8.9 8.0 83 1.3 NNE 7 7 4 4 - - 0.0
02/05:40pm 12.3 10.6 8.2 76 2.0 NNE 7 7 4 4 - - 0.0
02/05:30pm 13.5 11.7 7.9 69 2.8 NNE 7 7 4 4 - - 0.0
02/05:20pm 14.3 12.3 6.9 61 3.6 NNE 7 7 4 4 - - 0.0
02/05:10pm 14.6 12.6 7.3 61 3.6 NNE 7 7 4 4 - - 0.0
02/05:00pm 15.0 13.1 7.6 61 3.7 NNE 7 7 4 4 - - 0.0
02/04:50pm 15.5 13.8 8.3 62 3.7 NNE 7 7 4 4 - - 0.0
02/04:40pm 15.6 13.7 7.7 59 4.0 NNE 7 7 4 4 - - 0.0
02/04:30pm 15.7 14.1 8.6 62 3.7 NNE 7 7 4 4 - - 0.0
02/04:20pm 15.9 14.1 8.0 59 4.0 NNE 7 7 4 4 - - 0.0
02/04:10pm 16.0 14.3 8.3 60 3.9 NNE 7 7 4 4 - - 0.0
02/04:00pm 16.0 14.2 7.8 58 4.2 NNE 7 7 4 4 - - 0.0
02/03:50pm 16.1 14.3 7.9 58 4.2 NNE 7 7 4 4 - - 0.0
02/03:40pm 16.5 14.9 8.6 59 4.1 NNE 7 7 4 4 - - 0.0
02/03:30pm 16.5 15.0 9.1 61 3.9 NNE 7 7 4 4 - - 0.0
02/03:20pm 16.7 14.9 8.0 56 4.5 NNE 7 7 4 4 - - 0.0
02/03:10pm 16.4 14.6 7.9 57 4.3 NNE 7 7 4 4 - - 0.0
02/03:00pm 16.7 14.8 7.4 54 4.7 NNE 7 7 4 4 - - 0.0
02/02:50pm 16.8 15.0 7.9 55 4.5 NNE 7 7 4 4 - - 0.0
02/02:40pm 16.8 14.9 7.7 55 4.6 NNE 7 7 4 4 - - 0.0
02/02:30pm 16.4 14.4 7.1 54 4.7 NNE 7 7 4 4 - - 0.0
02/02:20pm 16.3 14.1 6.3 51 4.9 NNE 7 7 4 4 - - 0.0
02/02:10pm 16.3 14.7 8.7 60 3.9 NNE 7 7 4 4 - - 0.0
02/02:00pm 16.4 14.9 9.3 63 3.7 NNE 7 7 4 4 - - 0.0
02/01:50pm 16.2 14.5 8.2 59 4.1 NNE 7 7 4 4 - - 0.0
02/01:40pm 15.7 13.5 6.4 54 4.6 NNE 7 7 4 4 - - 0.0
02/01:30pm 15.7 13.8 7.6 58 4.1 NNE 7 7 4 4 - - 0.0
02/01:20pm 15.5 13.6 7.4 58 4.1 NNE 7 7 4 4 - - 0.0
02/01:10pm 15.5 13.8 8.5 63 3.6 NNE 7 7 4 4 - - 0.0
02/01:00pm 15.1 13.5 8.7 65 3.3 NNE 7 7 4 4 - - 0.0
02/12:50pm 15.4 13.9 9.1 66 3.3 NNE 7 7 4 4 - - 0.0
02/12:40pm 15.1 13.8 10.0 71 2.7 NNE 7 7 4 4 - - 0.0
02/12:30pm 14.8 13.2 8.8 67 3.1 NNE 7 7 4 4 - - 0.0
02/12:20pm 14.6 12.9 8.5 67 3.1 NNE 7 7 4 4 - - 0.0
02/12:10pm 14.2 12.8 9.6 74 2.4 NNE 7 7 4 4 - - 0.0
02/12:00pm 14.2 12.8 9.4 73 2.5 NNE 7 7 4 4 - - 0.0
02/11:50am 14.1 12.7 9.7 75 2.3 NNE 7 7 4 4 - - 0.0
02/11:40am 13.9 12.4 9.2 73 2.4 NNE 7 7 4 4 - - 0.0
02/11:30am 13.9 12.5 9.4 74 2.3 NNE 7 7 4 4 - - 0.0
02/11:20am 13.7 12.3 9.5 76 2.2 NNE 7 7 4 4 - - 0.0
02/11:10am 13.5 12.4 10.5 82 1.6 NNE 7 7 4 4 - - 0.0
02/11:00am 13.3 11.8 9.2 76 2.1 NNE 7 7 4 4 - - 0.0
02/10:50am 13.2 11.8 9.6 79 1.9 NNE 7 7 4 4 - - 0.0
02/10:40am 12.8 11.3 9.2 79 1.8 NNE 7 7 4 4 - - 0.0
02/10:30am 12.7 11.3 9.5 81 1.6 NNE 7 7 4 4 - - 0.0
02/10:20am 12.4 11.0 9.5 82 1.5 NNE 7 7 4 4 - - 0.0
02/10:10am 12.0 10.6 9.6 85 1.2 NNE 7 7 4 4 - - 0.0
02/10:00am 11.6 10.2 9.4 86 1.1 NNE 7 7 4 4 - - 0.0
02/09:50am 11.5 10.0 9.3 86 1.1 NNE 7 7 4 4 - - 0.0
02/09:40am 11.3 9.7 8.8 84 1.3 NNE 7 7 4 4 - - 0.0
02/09:30am 10.6 9.0 8.8 89 0.9 NNE 7 7 4 4 - - 0.0
02/09:20am 9.6 7.8 8.1 90 0.7 NNE 7 7 4 4 - - 0.0
02/09:10am 9.1 7.4 8.5 96 0.3 NNE 7 7 4 4 - - 0.0
02/09:00am 8.6 7.0 8.6 100 0.0 NNE 7 7 4 4 - - 0.0
02/08:50am 8.2 6.5 8.2 100 0.0 NNE 7 7 4 4 - - 0.0
02/08:40am 7.4 5.5 7.4 100 0.0 NNE 7 7 4 4 - - 0.0
02/08:30am 6.3 4.1 6.3 100 0.0 NNE 7 7 4 4 - - 0.0
02/08:20am 5.0 2.5 5.0 100 0.0 NNE 7 7 4 4 - - 0.0
02/08:10am 3.9 1.2 3.9 100 0.0 NNE 7 7 4 4 - - 0.0
02/08:00am 2.7 -0.2 2.6 99 0.0 NNE 7 7 4 4 - - 0.0
02/07:50am 1.7 -1.3 1.7 100 0.0 NNE 7 7 4 4 - - 0.0
02/07:40am 1.5 -1.6 1.5 100 0.0 NNE 7 7 4 4 - - 0.0
02/07:30am 1.4 -1.7 1.4 100 0.0 NNE 7 7 4 4 - - 0.0
02/07:20am 1.3 -1.8 1.3 100 0.0 NNE 7 7 4 4 - - 0.0
02/07:10am 1.2 -1.9 1.2 100 0.0 NNE 7 7 4 4 - - 0.0
02/07:00am 0.7 -2.5 0.7 100 0.0 NNE 7 7 4 4 - - 0.0
02/06:50am 0.9 -2.3 0.9 100 0.0 NNE 7 7 4 4 - - 0.0
02/06:40am 1.1 -2.0 1.1 100 0.0 NNE 7 7 4 4 - - 0.0
02/06:30am 1.2 -1.9 1.2 100 0.0 NNE 7 7 4 4 - - 0.0
02/06:20am 1.2 -1.9 1.2 100 0.0 NNE 7 7 4 4 - - 0.0
02/06:10am 1.0 -2.2 1.0 100 0.0 NNE 7 7 4 4 - - 0.0
02/06:00am 0.3 -3.0 0.3 100 0.0 NNE 7 7 4 4 - - 0.0
02/05:50am 0.1 -3.2 0.1 100 0.0 NNE 7 7 4 4 - - 0.0
02/05:40am 0.0 -3.3 -0.1 99 0.0 NNE 7 7 4 4 - - 0.0
02/05:30am 0.4 -2.9 0.3 99 0.0 NNE 7 7 4 4 - - 0.0
02/05:20am 0.6 -2.6 0.6 100 0.0 NNE 7 7 4 4 - - 0.0
02/05:10am 1.4 -1.7 1.4 100 0.0 NNE 7 7 4 4 - - 0.0
02/05:00am 1.0 -2.2 1.0 100 0.0 NNE 7 7 4 4 - - 0.0
02/04:50am 0.7 -2.5 0.7 100 0.0 NNE 7 7 4 4 - - 0.0
02/04:40am 0.4 -2.9 0.4 100 0.0 NNE 7 7 4 4 - - 0.0
02/04:30am 0.4 -2.9 0.4 100 0.0 NNE 7 7 4 4 - - 0.0
02/04:20am 0.7 -2.5 0.7 100 0.0 NNE 7 7 4 4 - - 0.0
02/04:10am 0.7 -2.5 0.7 100 0.0 NNE 7 7 4 4 - - 0.0
02/04:00am 1.1 -2.1 1.0 99 0.0 NNE 7 7 4 4 - - 0.0
02/03:50am 1.6 -1.5 1.5 99 0.0 NNE 7 7 4 4 - - 0.0
02/03:40am 1.9 -1.1 1.9 100 0.0 NNE 7 7 4 4 - - 0.0
02/03:30am 2.3 -0.7 2.3 100 0.0 NNE 7 7 4 4 - - 0.0
02/03:20am 2.2 -0.8 2.2 100 0.0 NNE 7 7 4 4 - - 0.0
02/03:10am 2.8 -0.1 2.7 99 0.0 NNE 7 7 4 4 - - 0.0
02/03:00am 2.5 -0.4 2.5 100 0.0 NNE 7 7 4 4 - - 0.0
02/02:50am 1.9 -1.1 1.9 100 0.0 NNE 7 7 4 4 - - 0.0
02/02:40am 1.9 -1.1 1.9 100 0.0 NNE 7 7 4 4 - - 0.0
02/02:30am 2.3 -0.7 2.3 100 0.0 NNE 7 7 4 4 - - 0.0
02/02:20am 3.1 0.3 3.1 100 0.0 NNE 7 7 4 4 - - 0.0
02/02:10am 3.0 0.2 3.0 100 0.0 NNE 7 7 4 4 - - 0.0
02/02:00am 2.8 -0.1 2.8 100 0.0 NNE 7 7 4 4 - - 0.0
02/01:50am 2.6 -0.3 2.6 100 0.0 NNE 7 7 4 4 - - 0.0
02/01:40am 2.4 -0.5 2.4 100 0.0 NNE 7 7 4 4 - - 0.0
02/01:30am 1.9 -1.1 1.9 100 0.0 NNE 7 7 4 4 - - 0.0
02/01:20am 1.5 -1.6 1.5 100 0.0 NNE 7 7 4 4 - - 0.0
02/01:10am 1.7 -1.3 1.7 100 0.0 NNE 7 7 4 4 - - 0.0
02/01:00am 1.8 -1.2 1.8 100 0.0 NNE 7 7 4 4 - - 0.0
02/12:50am 2.5 -0.4 2.5 100 0.0 NNE 7 7 4 4 - - 0.0
02/12:40am 2.5 -0.4 2.5 100 0.0 NNE 7 7 4 4 - - 0.0
02/12:30am 2.3 -0.7 2.3 100 0.0 NNE 7 7 4 4 - - 0.0
02/12:20am 1.7 -1.3 1.7 100 0.0 NNE 7 7 4 4 - - 0.0
02/12:10am 1.4 -1.7 1.4 100 0.0 NNE 7 7 4 4 - - 0.0
02/12:00am 1.5 -1.6 1.5 100 0.0 NNE 7 7 4 4 - - 0.0
 
Date/Time
EST
Temp
°C
App
Temp
°C
Dew
Point
°C
Rel
Hum
%
Delta-T
°C
Wind Press
QNH
hPa
Press
MSL
hPa
Rain since
9am
mm
Dir  Spd
km/h
Gust
km/h
Spd
kts
Gust
kts
01/11:50pm 1.9 -1.1 1.9 100 0.0 NNE 7 7 4 4 - - 0.0
01/11:40pm 2.0 -1.0 2.0 100 0.0 NNE 7 7 4 4 - - 0.0
01/11:30pm 2.0 -1.0 1.9 99 0.0 NNE 7 7 4 4 - - 0.0
01/11:20pm 2.1 -0.9 2.0 99 0.0 NNE 7 7 4 4 - - 0.0
01/11:10pm 2.0 -1.0 2.0 100 0.0 NNE 7 7 4 4 - - 0.0
01/11:00pm 2.3 -0.7 2.3 100 0.0 NNE 7 7 4 4 - - 0.0
01/10:50pm 2.8 -0.1 2.8 100 0.0 NNE 7 7 4 4 - - 0.0
01/10:40pm 3.1 0.3 3.1 100 0.0 NNE 7 7 4 4 - - 0.0
01/10:30pm 3.0 0.2 3.0 100 0.0 NNE 7 7 4 4 - - 0.0
01/10:20pm 3.0 0.2 3.0 100 0.0 NNE 7 7 4 4 - - 0.0

Other formats

Comma delimited format used in spreadsheet applications
http://www.bom.gov.au/fwo/IDN60801/IDN60801.99998.axf

JavaScript Object Notation format (JSON) in row-major order
http://www.bom.gov.au/fwo/IDN60801/IDN60801.99998.json

Data quality

Most of these data are generated automatically and are frequently updated. Quality checks on data are not normally performed. It is possible for incorrect values to appear. Refer to information at About Latest Weather Observations and please check the disclaimer before using these data.